Time;durP1;ratioP1;P1;durP2;ratioP2;P2;SDS_P1;SDS_P2;PMS_P1;PMS_P2;Temp;Humidity;BMP_temperature;BMP_pressure;BME280_temperature;BME280_humidity;BME280_pressure;Samples;Min_cycle;Max_cycle;Signal;HPM_P1;HPM_P2
2022/05/28 00:02:17;;;;;;;5.00;4.60;;;;;;;25.95;41.86;94865.16;6186412;28;103276;-58
2022/05/28 00:05:21;;;;;;;5.03;4.63;;;;;;;25.94;41.95;94871.63;6185874;28;103138;-58
2022/05/28 00:08:25;;;;;;;4.50;4.20;;;;;;;25.94;41.89;94867.06;6181595;28;103136;-57
2022/05/28 00:11:31;;;;;;;4.97;4.57;;;;;;;25.94;41.95;94863.59;6181418;28;103951;-58
2022/05/28 00:14:34;;;;;;;4.77;4.37;;;;;;;25.92;42.24;94855.88;6186318;28;104227;-57
2022/05/28 00:17:38;;;;;;;4.63;4.33;;;;;;;25.94;41.64;94855.53;6186608;28;104066;-57
2022/05/28 00:20:41;;;;;;;4.83;4.43;;;;;;;25.93;42.13;94857.44;6175911;28;103753;-57
2022/05/28 00:23:45;;;;;;;5.20;4.80;;;;;;;25.93;41.96;94867.41;6186446;28;103698;-58
2022/05/28 00:26:48;;;;;;;5.20;4.70;;;;;;;25.93;41.77;94862.03;6186355;28;103600;-58
2022/05/28 00:29:51;;;;;;;4.87;4.57;;;;;;;25.95;41.92;94849.06;6185965;28;103014;-57
2022/05/28 00:32:56;;;;;;;4.70;4.40;;;;;;;25.92;41.77;94839.81;6175830;28;103670;-58
2022/05/28 00:36:00;;;;;;;4.63;4.33;;;;;;;25.93;41.56;94835.22;6185193;28;103113;-59
2022/05/28 00:39:03;;;;;;;5.03;4.67;;;;;;;25.92;41.99;94834.44;6185669;28;103110;-57
2022/05/28 00:42:07;;;;;;;4.40;4.10;;;;;;;25.91;41.95;94826.72;6182439;28;104018;-60
2022/05/28 00:45:11;;;;;;;4.70;4.40;;;;;;;25.92;41.80;94820.25;6181220;28;104153;-57
2022/05/28 00:48:22;;;;;;;4.60;4.30;;;;;;;25.91;41.92;94816.78;6190154;28;104133;-57
2022/05/28 00:51:31;;;;;;;5.17;4.83;;;;;;;25.91;41.83;94811.44;6189920;28;103248;-57
2022/05/28 00:54:38;;;;;;;5.33;4.93;;;;;;;25.92;41.80;94806.84;6179768;28;103034;-58
2022/05/28 00:57:43;;;;;;;5.00;4.60;;;;;;;25.91;41.53;94805.28;6189731;28;104357;-58
2022/05/28 01:00:46;;;;;;;4.40;4.10;;;;;;;25.93;42.29;94803.03;6210941;28;102806;-58
2022/05/28 01:04:07;;;;;;;5.23;4.83;;;;;;;25.91;41.87;94805.28;6214046;28;103386;-57
2022/05/28 01:07:21;;;;;;;4.80;4.50;;;;;;;25.91;41.74;94799.91;6205016;28;103118;-57
2022/05/28 01:10:32;;;;;;;4.63;4.33;;;;;;;25.91;41.57;94811.44;6213694;28;103121;-58
2022/05/28 01:13:44;;;;;;;5.27;4.87;;;;;;;25.91;42.22;94818.69;6214484;28;103114;-58
2022/05/28 01:16:52;;;;;;;4.70;4.40;;;;;;;25.91;41.83;94829.41;6204356;28;103869;-57
2022/05/28 01:20:04;;;;;;;5.00;4.60;;;;;;;25.91;41.78;94829.41;6213710;28;104152;-58
2022/05/28 01:23:21;;;;;;;4.40;4.10;;;;;;;25.91;41.49;94840.13;6214024;28;103289;-57
2022/05/28 01:26:33;;;;;;;4.60;4.30;;;;;;;25.89;42.18;94837.00;6214059;28;104065;-57
2022/05/28 01:29:40;;;;;;;4.80;4.43;;;;;;;25.91;41.67;94850.88;6202908;28;103063;-58
2022/05/28 01:32:46;;;;;;;4.70;4.40;;;;;;;25.89;41.51;94880.69;6214534;28;104177;-59
2022/05/28 01:35:51;;;;;;;4.73;4.43;;;;;;;25.90;41.79;94909.06;6213786;28;103931;-57
2022/05/28 01:38:56;;;;;;;4.70;4.40;;;;;;;25.89;41.77;94902.13;6209694;28;103767;-61
2022/05/28 01:41:59;;;;;;;4.60;4.30;;;;;;;25.91;42.06;94912.53;6207995;28;103051;-60
2022/05/28 01:45:07;;;;;;;5.37;4.93;;;;;;;25.89;41.97;94898.69;6213939;28;104399;-62
2022/05/28 01:48:11;;;;;;;4.50;4.20;;;;;;;25.89;41.76;94896.00;6213061;28;104496;-61
2022/05/28 01:51:16;;;;;;;4.60;4.30;;;;;;;25.88;41.82;94897.13;6202514;28;103205;-61
2022/05/28 01:54:24;;;;;;;4.87;4.50;;;;;;;25.89;42.00;94886.06;6213865;28;104208;-58
2022/05/28 01:57:27;;;;;;;5.40;5.00;;;;;;;25.89;41.67;94887.94;6212428;28;103117;-57
2022/05/28 02:00:32;;;;;;;4.93;4.57;;;;;;;25.89;41.90;94896.78;6194429;28;104194;-58
2022/05/28 02:03:38;;;;;;;4.97;4.57;;;;;;;25.89;41.40;94887.94;6178265;28;103994;-58
2022/05/28 02:06:42;;;;;;;4.90;4.50;;;;;;;25.88;41.93;94895.22;6188640;28;104018;-57
2022/05/28 02:09:49;;;;;;;4.90;4.50;;;;;;;25.89;41.64;94885.28;6187936;28;103331;-58
2022/05/28 02:13:09;;;;;;;4.83;4.43;;;;;;;25.88;41.73;94894.44;6184056;28;103651;-58
2022/05/28 02:16:18;;;;;;;4.40;4.10;;;;;;;25.87;41.96;94884.78;6183020;28;102919;-57
2022/05/28 02:19:27;;;;;;;4.40;4.10;;;;;;;25.85;41.78;94885.13;6187781;28;103352;-57
2022/05/28 02:22:39;;;;;;;4.73;4.43;;;;;;;25.88;41.82;94894.44;6188382;28;104238;-59
2022/05/28 02:25:48;;;;;;;5.07;4.67;;;;;;;25.89;41.81;94887.94;6178734;28;104200;-57
2022/05/28 02:28:53;;;;;;;4.50;4.20;;;;;;;25.88;42.01;94891.75;6188682;28;103308;-58
2022/05/28 02:31:57;;;;;;;4.37;4.07;;;;;;;25.87;41.83;94879.44;6187954;28;102901;-57
2022/05/28 02:35:00;;;;;;;4.60;4.30;;;;;;;25.87;41.83;94884.78;6187650;28;103369;-57
2022/05/28 02:38:04;;;;;;;4.57;4.27;;;;;;;25.87;41.84;94882.91;6177088;28;103992;-59
2022/05/28 02:41:07;;;;;;;4.47;4.17;;;;;;;25.88;41.64;94886.38;6187438;28;103033;-57
2022/05/28 02:44:10;;;;;;;4.10;3.80;;;;;;;25.87;41.82;94884.78;6188079;28;104231;-58
2022/05/28 02:47:15;;;;;;;4.60;4.30;;;;;;;25.86;42.00;94873.28;6183693;28;104094;-58
2022/05/28 02:50:18;;;;;;;4.60;4.30;;;;;;;25.86;41.95;94870.59;6182340;28;104185;-57
2022/05/28 02:53:21;;;;;;;5.27;4.80;;;;;;;25.88;41.60;94867.63;6187994;28;104320;-57
2022/05/28 02:56:24;;;;;;;4.43;4.13;;;;;;;25.85;41.68;94855.63;6187215;28;103114;-58
2022/05/28 02:59:28;;;;;;;4.40;4.10;;;;;;;25.86;41.71;94851.84;6187440;28;103225;-57
2022/05/28 03:02:32;;;;;;;4.20;3.90;;;;;;;25.86;41.74;94859.88;6211467;28;103090;-58
2022/05/28 03:05:35;;;;;;;3.90;3.70;;;;;;;25.85;42.30;94855.63;6211999;28;103242;-58
2022/05/28 03:08:39;;;;;;;4.77;4.27;;;;;;;25.87;41.94;94874.06;6211091;28;103876;-59
2022/05/28 03:11:43;;;;;;;4.47;4.17;;;;;;;25.86;42.24;94885.91;6202417;28;102922;-60
2022/05/28 03:14:46;;;;;;;4.43;4.13;;;;;;;25.86;41.74;94878.66;6211942;28;103003;-61
2022/05/28 03:17:51;;;;;;;4.73;4.43;;;;;;;25.86;41.65;94870.59;6211970;28;104202;-57
2022/05/28 03:20:54;;;;;;;4.77;4.47;;;;;;;25.85;41.87;94874.41;6208527;28;103354;-59
2022/05/28 03:23:57;;;;;;;4.73;4.43;;;;;;;25.85;41.89;94873.63;6204780;28;103972;-58
2022/05/28 03:27:00;;;;;;;4.40;4.10;;;;;;;25.85;41.84;94870.94;6211572;28;102709;-57
2022/05/28 03:30:04;;;;;;;4.30;4.00;;;;;;;25.86;41.76;94872.50;6211250;28;103180;-57
2022/05/28 03:33:09;;;;;;;4.40;4.10;;;;;;;25.85;41.99;94889.72;6200980;28;103312;-58
2022/05/28 03:36:13;;;;;;;4.37;4.07;;;;;;;25.85;41.99;94889.72;6211055;28;103223;-57
2022/05/28 03:39:17;;;;;;;4.13;3.87;;;;;;;25.86;42.08;94880.56;6210812;28;103197;-56
2022/05/28 03:42:20;;;;;;;4.40;4.10;;;;;;;25.86;41.76;94875.19;6211889;28;104229;-57
2022/05/28 03:45:24;;;;;;;4.50;4.20;;;;;;;25.85;41.79;94862.91;6201475;28;104225;-57
2022/05/28 03:48:29;;;;;;;4.70;4.33;;;;;;;25.85;41.76;94862.91;6211222;28;104289;-57
2022/05/28 03:51:33;;;;;;;4.40;4.00;;;;;;;25.85;41.77;94861.00;6211119;28;104137;-57
2022/05/28 03:54:43;;;;;;;5.87;4.67;;;;;;;25.84;42.12;94859.44;6211046;28;103955;-57
2022/05/28 03:57:47;;;;;;;4.10;3.80;;;;;;;25.85;41.89;94849.50;6200814;28;103989;-58
2022/05/28 04:00:50;;;;;;;4.27;3.97;;;;;;;25.84;42.02;94837.22;6188872;28;103982;-59
2022/05/28 04:03:54;;;;;;;4.23;3.93;;;;;;;25.84;41.92;94832.63;6186679;28;104079;-58
2022/05/28 04:07:00;;;;;;;4.27;3.97;;;;;;;25.84;41.88;94837.22;6179076;28;104212;-60
2022/05/28 04:10:04;;;;;;;4.53;4.03;;;;;;;25.85;41.50;94828.84;6184282;28;103018;-57
2022/05/28 04:13:07;;;;;;;4.07;3.77;;;;;;;25.85;41.79;94828.06;6186891;28;104207;-57
2022/05/28 04:16:10;;;;;;;4.50;4.20;;;;;;;25.85;41.88;94828.06;6185535;28;103246;-58
2022/05/28 04:19:16;;;;;;;4.40;4.10;;;;;;;25.84;41.73;94826.50;6177875;28;104292;-59
2022/05/28 04:22:19;;;;;;;3.90;3.60;;;;;;;25.85;41.72;94822.69;6190050;28;103259;-59
2022/05/28 04:25:22;;;;;;;4.10;3.80;;;;;;;25.87;41.82;94825.81;6190039;28;103255;-57
2022/05/28 04:28:26;;;;;;;3.70;3.50;;;;;;;25.86;41.78;94830.41;6190298;28;102893;-58
2022/05/28 04:31:31;;;;;;;4.53;4.20;;;;;;;25.85;41.78;94846.81;6178970;28;103794;-57
2022/05/28 04:34:35;;;;;;;4.00;3.80;;;;;;;25.86;41.76;94886.69;6190511;28;104156;-58
2022/05/28 04:37:38;;;;;;;4.10;3.80;;;;;;;25.87;41.81;94930.38;6190699;28;105018;-60
2022/05/28 04:40:41;;;;;;;5.00;4.60;;;;;;;25.85;41.62;94898.53;6184212;28;103054;-57
2022/05/28 04:43:44;;;;;;;4.03;3.80;;;;;;;25.84;42.01;94856.75;6186061;28;103926;-58
2022/05/28 04:46:48;;;;;;;4.30;4.00;;;;;;;25.84;42.19;94842.56;6189655;28;103727;-57
2022/05/28 04:49:52;;;;;;;4.73;4.43;;;;;;;25.86;41.63;94827.72;6189611;28;103175;-59
2022/05/28 04:52:55;;;;;;;4.63;4.27;;;;;;;25.84;41.84;94837.22;6179971;28;104173;-57
2022/05/28 04:55:59;;;;;;;4.53;4.23;;;;;;;25.86;41.71;94848.38;6190161;28;104017;-59
2022/05/28 04:59:02;;;;;;;4.37;4.07;;;;;;;25.85;41.79;94860.22;6197187;28;104409;-57
2022/05/28 05:02:06;;;;;;;4.20;3.90;;;;;;;25.85;41.82;94890.50;6214115;28;104242;-61
2022/05/28 05:05:11;;;;;;;4.17;3.87;;;;;;;25.85;41.71;94893.19;6204084;28;102791;-57
2022/05/28 05:08:14;;;;;;;4.37;4.07;;;;;;;25.84;41.88;94896.97;6213171;28;103158;-58
2022/05/28 05:11:17;;;;;;;4.67;4.27;;;;;;;25.82;41.81;94906.47;6214476;28;104496;-59
2022/05/28 05:14:21;;;;;;;4.13;3.83;;;;;;;25.85;41.72;94927.25;6214440;28;104139;-58
2022/05/28 05:17:24;;;;;;;4.20;3.80;;;;;;;25.85;41.89;94927.25;6205279;28;104065;-58
2022/05/28 05:20:28;;;;;;;3.87;3.63;;;;;;;25.84;42.21;94917.63;6214096;28;103278;-58
2022/05/28 05:23:31;;;;;;;5.40;4.07;;;;;;;25.82;41.86;94906.47;6213271;28;103069;-57
2022/05/28 05:26:35;;;;;;;4.53;4.13;;;;;;;25.82;41.96;94887.72;6204415;28;105215;-58
2022/05/28 05:29:38;;;;;;;4.10;3.80;;;;;;;25.82;42.05;94874.31;6212729;28;104017;-59
2022/05/28 05:32:42;;;;;;;4.70;4.40;;;;;;;25.82;41.63;94887.72;6213738;28;103140;-57
2022/05/28 05:35:46;;;;;;;4.33;4.03;;;;;;;25.82;41.53;94899.22;6213825;28;104117;-57
2022/05/28 05:38:49;;;;;;;3.80;3.50;;;;;;;25.82;42.00;94890.38;6202227;28;103178;-58
2022/05/28 05:41:53;;;;;;;4.47;4.17;;;;;;;25.81;41.94;94902.22;6212694;28;102977;-58
2022/05/28 05:44:56;;;;;;;4.50;4.20;;;;;;;25.82;42.15;94903.78;6213610;28;104133;-57
2022/05/28 05:48:00;;;;;;;4.70;4.40;;;;;;;25.83;41.83;94910.72;6214205;28;104234;-57
2022/05/28 05:51:09;;;;;;;3.83;3.53;;;;;;;25.87;41.70;94908.94;6202404;28;102767;-58
2022/05/28 05:54:13;;;;;;;4.17;3.87;;;;;;;25.92;41.59;94903.38;6212787;28;103070;-57
2022/05/28 05:57:16;;;;;;;4.43;4.13;;;;;;;25.98;41.79;94908.16;6213686;28;104099;-57
2022/05/28 06:00:20;;;;;;;5.00;4.53;;;;;;;26.04;41.44;94895.34;6189682;28;103914;-58
2022/05/28 06:03:23;;;;;;;4.67;4.27;;;;;;;26.10;41.47;94904.75;6183571;28;103058;-58
2022/05/28 06:06:28;;;;;;;4.70;4.30;;;;;;;26.15;41.27;94893.78;6188766;28;103235;-57
2022/05/28 06:09:31;;;;;;;4.43;4.13;;;;;;;26.19;41.30;94892.00;6187624;28;103881;-57
2022/05/28 06:12:35;;;;;;;4.47;4.07;;;;;;;26.25;41.73;94888.00;6178595;28;105532;-58
2022/05/28 06:15:38;;;;;;;4.53;4.13;;;;;;;26.31;40.91;94888.53;6188631;28;104356;-57
2022/05/28 06:18:41;;;;;;;3.90;3.70;;;;;;;26.35;40.98;94883.28;6187726;28;103224;-57
2022/05/28 06:21:46;;;;;;;3.97;3.67;;;;;;;26.36;41.35;94866.84;6187930;28;103433;-57
2022/05/28 06:24:49;;;;;;;4.43;4.10;;;;;;;26.42;40.89;94870.09;6177067;28;103047;-57
2022/05/28 06:27:52;;;;;;;4.30;4.00;;;;;;;26.46;40.89;94869.06;6211202;28;103058;-57
2022/05/28 06:31:00;;;;;;;4.17;3.87;;;;;;;26.51;40.94;94865.38;6215744;28;104203;-57
2022/05/28 06:34:03;;;;;;;3.87;3.57;;;;;;;26.55;40.95;94863.59;6210403;28;103259;-58
2022/05/28 06:37:09;;;;;;;4.53;4.13;;;;;;;26.58;40.78;94860.22;6209031;28;103116;-57
2022/05/28 06:40:13;;;;;;;3.90;3.60;;;;;;;26.62;40.99;94860.31;6215492;28;104051;-57
2022/05/28 06:43:16;;;;;;;4.63;4.27;;;;;;;26.65;40.51;94846.25;6214042;28;104531;-57
2022/05/28 06:46:19;;;;;;;4.40;4.10;;;;;;;26.68;40.63;94845.56;6205729;28;104361;-57
2022/05/28 06:49:24;;;;;;;4.40;4.00;;;;;;;26.71;40.72;94837.59;6214672;28;102939;-57
2022/05/28 06:52:28;;;;;;;4.57;4.27;;;;;;;26.74;40.51;94825.44;6214615;28;103161;-57
2022/05/28 06:55:31;;;;;;;4.80;4.40;;;;;;;26.77;41.06;94820.16;6214482;28;103031;-57
2022/05/28 06:58:35;;;;;;;4.17;3.87;;;;;;;26.79;40.99;94811.75;6204514;28;103871;-57
2022/05/28 07:01:38;;;;;;;3.83;3.53;;;;;;;26.79;40.38;94812.53;6197318;28;104125;-60
2022/05/28 07:04:42;;;;;;;3.60;3.40;;;;;;;26.82;40.48;94811.84;6212795;28;104075;-57
2022/05/28 07:07:46;;;;;;;4.37;4.07;;;;;;;26.83;40.93;94802.66;6190907;28;103751;-57
2022/05/28 07:10:53;;;;;;;4.43;4.03;;;;;;;26.86;41.03;94801.97;6176515;28;103092;-58
2022/05/28 07:13:56;;;;;;;4.43;4.13;;;;;;;26.90;40.65;94801.31;6187073;28;103224;-58
2022/05/28 07:16:59;;;;;;;4.70;4.40;;;;;;;26.92;40.88;94801.75;6187550;28;103258;-58
2022/05/28 07:20:04;;;;;;;4.53;4.23;;;;;;;26.94;40.78;94797.59;6202424;28;104013;-57
2022/05/28 07:23:14;;;;;;;5.50;5.10;;;;;;;26.97;40.17;94780.78;6211719;28;103111;-57
2022/05/28 07:26:18;;;;;;;4.83;4.53;;;;;;;27.02;40.45;94787.81;6212398;28;103283;-57
2022/05/28 07:29:22;;;;;;;5.40;5.00;;;;;;;27.02;40.20;94782.44;6212507;28;103063;-57
2022/05/28 07:32:29;;;;;;;4.87;4.47;;;;;;;27.01;41.01;94775.50;6201602;28;103963;-57
2022/05/28 07:35:32;;;;;;;4.37;4.07;;;;;;;27.03;40.53;94776.72;6212226;28;103710;-57
2022/05/28 07:38:37;;;;;;;5.03;4.63;;;;;;;27.04;40.44;94774.81;6212048;28;104397;-57
2022/05/28 07:41:40;;;;;;;5.13;4.80;;;;;;;27.08;40.20;94767.66;6212006;28;104692;-57
2022/05/28 07:44:43;;;;;;;5.13;4.73;;;;;;;27.12;40.29;94755.09;6200997;28;103093;-57
2022/05/28 07:47:46;;;;;;;4.70;4.40;;;;;;;27.14;40.09;94763.56;6212301;28;103122;-57
2022/05/28 07:50:49;;;;;;;5.20;4.80;;;;;;;27.17;40.60;94762.88;6211808;28;103076;-57
2022/05/28 07:53:54;;;;;;;4.93;4.63;;;;;;;27.19;40.09;94768.69;6205831;28;103245;-56
2022/05/28 07:56:57;;;;;;;5.63;5.23;;;;;;;27.22;39.91;94773.41;6181904;28;104257;-57
2022/05/28 08:00:01;;;;;;;5.30;5.00;;;;;;;27.24;40.52;94767.69;6186343;28;103003;-59
2022/05/28 08:03:04;;;;;;;4.70;4.40;;;;;;;27.25;40.47;94767.31;6187778;28;104217;-56
2022/05/28 08:06:07;;;;;;;5.00;4.60;;;;;;;27.26;40.46;94755.47;6177449;28;103921;-57
2022/05/28 08:09:13;;;;;;;5.53;5.03;;;;;;;27.28;40.53;94747.84;6186096;28;103202;-57
2022/05/28 08:12:16;;;;;;;5.37;4.97;;;;;;;27.31;40.13;94739.09;6186945;28;104138;-57
2022/05/28 08:15:19;;;;;;;5.70;5.30;;;;;;;27.33;40.34;94739.53;6186313;28;103047;-59
2022/05/28 08:18:24;;;;;;;5.03;4.70;;;;;;;27.32;39.92;94732.59;6175848;28;103122;-56
2022/05/28 08:25:01;;;;;;;4.90;4.50;;;;;;;27.33;40.04;94736.06;6086506;28;104255;-57
2022/05/28 08:28:04;;;;;;;5.47;5.07;;;;;;;27.34;40.11;94733.03;6181108;28;104293;-58
2022/05/28 08:31:08;;;;;;;6.10;5.60;;;;;;;27.38;39.79;94736.56;6183159;28;102821;-56
2022/05/28 08:34:11;;;;;;;5.63;5.23;;;;;;;27.38;40.36;94733.09;6186726;28;102949;-57
2022/05/28 08:37:14;;;;;;;5.30;4.90;;;;;;;27.38;40.00;94731.19;6186261;28;103232;-58
2022/05/28 08:40:19;;;;;;;5.17;4.77;;;;;;;27.41;40.27;94737.81;6175396;28;103585;-57
2022/05/28 08:43:24;;;;;;;5.53;5.13;;;;;;;27.41;39.83;94733.22;6185598;28;103295;-57
2022/05/28 08:46:32;;;;;;;4.90;4.60;;;;;;;27.41;40.43;94727.84;6186262;28;104029;-58
2022/05/28 08:49:38;;;;;;;5.83;5.43;;;;;;;27.39;40.04;94732.78;6186523;28;102938;-58
2022/05/28 08:52:47;;;;;;;4.97;4.57;;;;;;;27.42;40.30;94721.31;6175981;28;103127;-57
2022/05/28 08:55:53;;;;;;;4.80;4.50;;;;;;;27.42;39.92;94724.00;6202351;28;102916;-58
2022/05/28 08:59:04;;;;;;;4.90;4.60;;;;;;;27.44;40.31;94716.38;6210376;28;102941;-57
2022/05/28 09:02:17;;;;;;;5.10;4.80;;;;;;;27.44;40.03;94718.28;6205929;28;104012;-58
2022/05/28 09:05:26;;;;;;;4.90;4.60;;;;;;;27.42;40.38;94709.78;6211012;28;103962;-58
2022/05/28 09:08:33;;;;;;;4.90;4.50;;;;;;;27.43;40.15;94722.09;6213689;28;103245;-57
2022/05/28 09:11:41;;;;;;;5.27;4.87;;;;;;;27.43;40.35;94712.13;6214069;28;103383;-58
2022/05/28 09:14:44;;;;;;;5.40;5.00;;;;;;;27.44;40.59;94713.69;6204396;28;104044;-59
2022/05/28 09:17:52;;;;;;;4.73;4.37;;;;;;;27.43;39.90;94711.34;6214541;28;104162;-59
2022/05/28 09:20:55;;;;;;;5.60;5.20;;;;;;;27.43;40.06;94711.34;6214004;28;103339;-57
2022/05/28 09:24:03;;;;;;;5.07;4.77;;;;;;;27.42;40.56;94713.25;6213987;28;103605;-58
2022/05/28 09:27:20;;;;;;;4.90;4.53;;;;;;;27.41;40.51;94708.25;6203932;28;103239;-57
2022/05/28 09:30:37;;;;;;;4.47;4.17;;;;;;;27.39;40.26;94697.84;6213127;28;103082;-57
2022/05/28 09:34:03;;;;;;;4.57;4.27;;;;;;;27.37;40.02;94692.00;6213642;28;103046;-59
2022/05/28 09:37:14;;;;;;;5.40;4.93;;;;;;;27.36;40.00;94686.97;6203167;28;103062;-58
2022/05/28 09:40:22;;;;;;;4.73;4.33;;;;;;;27.36;39.92;94687.75;6213974;28;103172;-57
2022/05/28 09:43:50;;;;;;;4.83;4.43;;;;;;;27.37;40.64;94675.88;6213701;28;103214;-58
2022/05/28 09:46:54;;;;;;;4.20;3.90;;;;;;;27.33;40.54;94668.88;6212671;28;103787;-59
2022/05/28 09:49:58;;;;;;;4.80;4.50;;;;;;;27.33;40.01;94675.03;6205813;28;104138;-58
2022/05/28 09:56:36;;;;;;;4.73;4.43;;;;;;;27.31;40.33;94671.13;6132231;28;104135;-58
2022/05/28 09:59:55;;;;;;;4.60;4.30;;;;;;;27.29;40.24;94666.09;6178152;28;103002;-57
2022/05/28 10:06:23;;;;;;;4.83;4.43;;;;;;;27.26;40.74;94656.06;6188554;28;103017;-58
2022/05/28 10:09:28;;;;;;;4.40;4.10;;;;;;;27.26;40.88;94648.00;6187845;28;103844;-58
2022/05/28 10:12:33;;;;;;;4.67;4.27;;;;;;;27.26;40.82;94650.69;6178476;28;103378;-58
2022/05/28 10:15:41;;;;;;;5.33;4.87;;;;;;;27.25;40.23;94640.25;6188272;28;104256;-58
2022/05/28 10:18:52;;;;;;;4.83;4.53;;;;;;;27.22;40.39;94641.75;6187981;28;103141;-58
2022/05/28 10:21:58;;;;;;;4.53;4.23;;;;;;;27.21;41.02;94648.22;6178732;28;105022;-58
2022/05/28 10:25:05;;;;;;;4.83;4.50;;;;;;;27.21;40.67;94644.75;6188365;28;103373;-57
2022/05/28 10:28:10;;;;;;;4.40;4.10;;;;;;;27.18;40.24;94638.19;6188593;28;104076;-58
2022/05/28 10:31:22;;;;;;;4.90;4.60;;;;;;;27.19;40.35;94628.97;6188064;28;103495;-58
2022/05/28 10:34:32;;;;;;;4.70;4.40;;;;;;;27.18;41.15;94625.53;6177270;28;104765;-58
2022/05/28 10:37:35;;;;;;;5.97;5.57;;;;;;;27.17;40.87;94623.97;6187984;28;104075;-59
2022/05/28 10:40:48;;;;;;;4.80;4.50;;;;;;;27.16;40.92;94621.63;6187974;28;103064;-57
2022/05/28 10:43:51;;;;;;;4.90;4.57;;;;;;;27.14;40.69;94623.88;6182823;28;103029;-57
2022/05/28 10:47:16;;;;;;;5.10;4.73;;;;;;;27.11;40.83;94611.94;6182335;28;103346;-58
2022/05/28 10:50:26;;;;;;;5.17;4.87;;;;;;;27.12;41.21;94620.78;6187533;28;103387;-58
2022/05/28 10:53:50;;;;;;;4.97;4.57;;;;;;;27.12;40.85;94612.72;6187148;28;103002;-58
2022/05/28 10:56:55;;;;;;;5.37;4.97;;;;;;;27.14;40.84;94610.47;6177163;28;103140;-58
2022/05/28 11:00:05;;;;;;;5.27;4.87;;;;;;;27.12;40.47;94610.81;6187352;28;104482;-63
2022/05/28 11:03:35;;;;;;;5.47;5.07;;;;;;;27.11;40.83;94608.47;6187375;28;103003;-58
2022/05/28 11:07:06;;;;;;;5.33;5.00;;;;;;;27.09;40.59;94598.06;6182346;28;104270;-57
2022/05/28 11:10:19;;;;;;;5.07;4.67;;;;;;;27.10;40.61;94590.78;6185177;28;104023;-57
2022/05/28 11:13:37;;;;;;;5.13;4.73;;;;;;;27.11;41.08;94581.59;6187287;28;103597;-56
2022/05/28 11:17:06;;;;;;;5.53;5.13;;;;;;;27.11;40.79;94579.69;6187138;28;103248;-56
2022/05/28 11:20:19;;;;;;;4.90;4.60;;;;;;;27.08;40.70;94569.66;6176804;28;103237;-59
2022/05/28 11:23:37;;;;;;;5.50;5.10;;;;;;;27.10;40.93;94569.31;6187573;28;102925;-57
2022/05/28 11:26:48;;;;;;;5.50;5.20;;;;;;;27.07;41.21;94554.66;6187134;28;103106;-57
2022/05/28 11:29:59;;;;;;;5.73;5.33;;;;;;;27.06;41.31;94555.81;6177959;28;103195;-58
2022/05/28 11:33:08;;;;;;;6.00;5.60;;;;;;;27.06;41.03;94549.66;6186881;28;104262;-56
2022/05/28 11:36:21;;;;;;;5.03;4.73;;;;;;;27.04;40.75;94541.91;6187191;28;104042;-56
2022/05/28 11:39:33;;;;;;;5.20;4.80;;;;;;;27.05;40.82;94545.38;6186838;28;103242;-56
2022/05/28 11:42:43;;;;;;;6.10;5.67;;;;;;;27.05;41.11;94540.00;6176990;28;104291;-57
2022/05/28 11:45:51;;;;;;;6.20;5.70;;;;;;;27.04;40.80;94544.59;6187073;28;103142;-56
2022/05/28 11:52:37;;;;;;;5.70;5.30;;;;;;;27.02;40.73;94554.16;6182212;28;104158;-57
2022/05/28 11:55:43;;;;;;;6.30;5.80;;;;;;;27.00;41.36;94549.13;6201355;28;103203;-57
2022/05/28 11:58:50;;;;;;;6.20;5.77;;;;;;;27.00;40.95;94551.03;6211049;28;103149;-56
2022/05/28 12:01:59;;;;;;;6.20;5.80;;;;;;;27.00;41.12;94564.47;6211275;28;103334;-58
2022/05/28 12:05:02;;;;;;;5.90;5.50;;;;;;;26.97;41.54;94567.84;6200629;28;102961;-56
2022/05/28 12:08:08;;;;;;;5.47;5.07;;;;;;;26.97;41.30;94554.41;6211517;28;104229;-56
2022/05/28 12:11:32;;;;;;;6.63;6.03;;;;;;;26.94;41.62;94558.59;6211285;28;104080;-56
2022/05/28 12:14:39;;;;;;;6.40;5.90;;;;;;;26.94;41.37;94561.28;6208022;28;103129;-59
2022/05/28 12:17:55;;;;;;;6.10;5.70;;;;;;;26.93;41.80;94564.31;6204855;28;103653;-57
2022/05/28 12:21:01;;;;;;;6.30;5.80;;;;;;;26.90;41.15;94565.78;6211699;28;104022;-57
2022/05/28 12:24:09;;;;;;;6.10;5.70;;;;;;;26.87;41.36;94564.56;6211043;28;104290;-56
2022/05/28 12:27:24;;;;;;;6.90;6.30;;;;;;;26.89;41.21;94568.81;6200796;28;103379;-58
2022/05/28 12:30:33;;;;;;;6.40;5.90;;;;;;;26.87;41.79;94569.16;6211302;28;103472;-57
2022/05/28 12:33:52;;;;;;;6.13;5.67;;;;;;;26.87;41.45;94571.81;6210654;28;103134;-59
2022/05/28 12:36:57;;;;;;;6.97;6.37;;;;;;;26.85;41.83;94561.44;6211042;28;104347;-57
2022/05/28 12:40:14;;;;;;;7.00;6.40;;;;;;;26.84;41.90;94557.19;6200461;28;105278;-57
2022/05/28 12:43:21;;;;;;;6.53;6.03;;;;;;;26.82;41.30;94564.81;6214842;28;103043;-57
2022/05/28 12:46:38;;;;;;;5.90;5.50;;;;;;;26.83;41.50;94565.59;6215162;28;102995;-57
2022/05/28 12:49:50;;;;;;;6.30;5.90;;;;;;;26.81;41.95;94568.63;6204555;28;103016;-57
2022/05/28 12:53:05;;;;;;;6.47;5.97;;;;;;;26.80;41.85;94566.31;6215719;28;104179;-57
2022/05/28 12:56:23;;;;;;;7.07;6.57;;;;;;;26.79;41.64;94559.38;6196580;28;104052;-58
2022/05/28 12:59:31;;;;;;;6.23;5.73;;;;;;;26.79;41.59;94564.75;6190034;28;103008;-58
2022/05/28 13:02:40;;;;;;;6.90;6.40;;;;;;;26.78;41.29;94563.97;6179963;28;103362;-57
2022/05/28 13:05:48;;;;;;;6.40;5.90;;;;;;;26.77;41.99;94577.75;6190604;28;103449;-57
2022/05/28 13:08:59;;;;;;;7.20;6.50;;;;;;;26.76;41.35;94582.34;6190132;28;104088;-57
2022/05/28 13:12:19;;;;;;;6.47;6.03;;;;;;;26.76;41.97;94573.50;6181294;28;102807;-57
2022/05/28 13:15:48;;;;;;;6.17;5.67;;;;;;;26.75;41.59;94577.31;6189386;28;102786;-57
2022/05/28 13:19:20;;;;;;;6.70;6.10;;;;;;;26.74;41.43;94560.44;6189420;28;103001;-57
2022/05/28 13:22:42;;;;;;;6.40;5.90;;;;;;;26.73;41.59;94560.78;6189305;28;103073;-57
2022/05/28 13:26:19;;;;;;;7.37;6.77;;;;;;;26.73;41.58;94566.91;6184345;28;103987;-57
2022/05/28 13:29:46;;;;;;;6.57;6.07;;;;;;;26.72;41.91;94570.72;6157208;28;103001;-57
2022/05/28 13:32:53;;;;;;;7.27;6.67;;;;;;;26.72;41.75;94576.09;6187740;28;104243;-57
2022/05/28 13:35:58;;;;;;;6.70;6.20;;;;;;;26.71;41.63;94584.47;6179062;28;104166;-57
2022/05/28 13:39:02;;;;;;;6.17;5.77;;;;;;;26.71;41.76;94600.59;6189731;28;104155;-56
2022/05/28 13:42:11;;;;;;;6.70;6.20;;;;;;;26.71;41.74;94616.69;6189062;28;103127;-56
2022/05/28 13:45:22;;;;;;;6.33;5.83;;;;;;;26.71;41.53;94630.91;6187027;28;103387;-58
2022/05/28 13:48:27;;;;;;;6.20;5.80;;;;;;;26.70;41.70;94631.25;6183592;28;103201;-57
2022/05/28 13:51:31;;;;;;;6.73;6.23;;;;;;;26.70;41.67;94633.94;6188948;28;103089;-57
2022/05/28 13:54:35;;;;;;;5.97;5.57;;;;;;;26.68;41.57;94645.00;6194913;28;103676;-57
2022/05/28 13:57:40;;;;;;;6.50;5.93;;;;;;;26.69;42.06;94648.47;6203500;28;103185;-57
2022/05/28 14:00:53;;;;;;;6.67;6.17;;;;;;;26.67;41.81;94643.44;6213639;28;103051;-57
2022/05/28 14:04:08;;;;;;;6.90;5.90;;;;;;;26.68;41.71;94649.59;6214058;28;102928;-58
2022/05/28 14:07:22;;;;;;;6.10;5.60;;;;;;;26.66;42.21;94646.47;6213606;28;102990;-57
2022/05/28 14:10:26;;;;;;;6.77;6.17;;;;;;;26.67;41.65;94648.03;6203015;28;104508;-58
2022/05/28 14:13:32;;;;;;;6.23;5.70;;;;;;;26.67;42.12;94648.03;6214097;28;104158;-57
2022/05/28 14:16:40;;;;;;;5.90;5.50;;;;;;;26.66;41.54;94652.63;6214425;28;103284;-56
2022/05/28 14:19:49;;;;;;;6.50;5.90;;;;;;;26.65;41.67;94645.72;6209026;28;102998;-58
2022/05/28 14:22:53;;;;;;;6.00;5.50;;;;;;;26.63;41.69;94655.19;6209029;28;104073;-59
2022/05/28 14:25:57;;;;;;;6.20;5.70;;;;;;;26.64;41.77;94660.25;6213649;28;103089;-57
2022/05/28 14:29:07;;;;;;;6.10;5.60;;;;;;;26.64;42.06;94662.94;6213327;28;103227;-57
2022/05/28 14:32:14;;;;;;;5.97;5.57;;;;;;;26.64;42.24;94656.78;6204090;28;103383;-57
2022/05/28 14:35:23;;;;;;;6.07;5.50;;;;;;;26.63;42.15;94660.56;6213245;28;103022;-57
2022/05/28 14:38:28;;;;;;;5.90;5.50;;;;;;;26.63;41.86;94647.16;6213587;28;104042;-57
2022/05/28 14:41:31;;;;;;;6.03;5.63;;;;;;;26.62;42.18;94665.16;6212913;28;102893;-56
2022/05/28 14:44:37;;;;;;;6.17;5.67;;;;;;;26.64;42.13;94675.56;6203451;28;104060;-57